Time;durP1;ratioP1;P1;durP2;ratioP2;P2;SDS_P1;SDS_P2;PMS_P1;PMS_P2;Temp;Humidity;BMP_temperature;BMP_pressure;BME280_temperature;BME280_humidity;BME280_pressure;Samples;Min_cycle;Max_cycle;Signal;HPM_P1;HPM_P2
2022/05/11 00:01:58;;;;;;;0.40;0.20;;;;;;;13.65;85.93;95654.19;5091989;28;20520;-64
2022/05/11 00:04:27;;;;;;;0.40;0.20;;;;;;;13.65;86.19;95656.03;5091944;28;20493;-65
2022/05/11 00:06:57;;;;;;;2.00;0.67;;;;;;;13.63;88.63;95656.34;5091603;28;20767;-65
2022/05/11 00:09:25;;;;;;;0.40;0.30;;;;;;;13.55;87.65;95653.47;5091508;28;20539;-65
2022/05/11 00:11:54;;;;;;;0.40;0.27;;;;;;;13.40;87.67;95651.72;5091780;28;20428;-65
2022/05/11 00:14:22;;;;;;;0.60;0.50;;;;;;;13.05;92.57;95665.25;5091776;28;20440;-64
2022/05/11 00:16:50;;;;;;;0.40;0.20;;;;;;;13.11;92.88;95658.84;5091795;28;21010;-65
2022/05/11 00:19:21;;;;;;;2.00;0.30;;;;;;;13.25;91.32;95657.16;5091784;28;20527;-64
2022/05/11 00:21:49;;;;;;;0.40;0.20;;;;;;;13.37;88.40;95641.63;5091639;28;20900;-64
2022/05/11 00:24:19;;;;;;;0.40;0.20;;;;;;;13.42;89.79;95644.25;5091106;28;20424;-64
2022/05/11 00:26:47;;;;;;;0.43;0.27;;;;;;;13.50;89.30;95642.84;5091952;28;20507;-64
2022/05/11 00:29:16;;;;;;;0.40;0.20;;;;;;;13.44;89.91;95631.44;5091963;28;20511;-63
2022/05/11 00:31:44;;;;;;;0.40;0.20;;;;;;;13.46;92.76;95642.59;5091578;28;21012;-64
2022/05/11 00:34:12;;;;;;;0.40;0.20;;;;;;;13.64;88.25;95641.94;5091620;28;20477;-64
2022/05/11 00:36:41;;;;;;;0.50;0.30;;;;;;;13.18;92.14;95643.38;5091533;28;20551;-64
2022/05/11 00:39:09;;;;;;;0.40;0.30;;;;;;;13.62;90.80;95643.28;5092096;28;20428;-63
2022/05/11 00:41:42;;;;;;;0.40;0.20;;;;;;;13.75;90.84;95645.28;5091610;28;20948;-64
2022/05/11 00:44:12;;;;;;;0.40;0.30;;;;;;;13.91;87.79;95639.53;5091234;28;20503;-63
2022/05/11 00:46:56;;;;;;;0.40;0.20;;;;;;;13.76;88.48;95646.91;5091377;28;20439;-63
2022/05/11 00:49:35;;;;;;;0.40;0.30;;;;;;;13.83;84.74;95640.16;5091804;28;20428;-63
2022/05/11 00:52:08;;;;;;;0.40;0.30;;;;;;;13.64;88.54;95649.13;5091377;28;20488;-63
2022/05/11 00:54:41;;;;;;;0.30;0.20;;;;;;;13.67;90.55;95648.56;5091607;28;20511;-63
2022/05/11 00:57:19;;;;;;;0.40;0.30;;;;;;;13.46;94.06;95644.50;5091173;28;20510;-63
2022/05/11 00:59:50;;;;;;;2.53;0.93;;;;;;;13.23;97.42;95654.00;5091286;28;20442;-63
2022/05/11 01:02:22;;;;;;;0.40;0.40;;;;;;;13.39;99.98;95644.81;5091547;28;20464;-63
2022/05/11 01:04:55;;;;;;;0.40;0.20;;;;;;;13.18;95.45;95596.25;5091627;28;20420;-63
2022/05/11 01:07:23;;;;;;;0.40;0.20;;;;;;;13.66;92.51;95650.44;5091259;28;20526;-63
2022/05/11 01:09:52;;;;;;;0.40;0.30;;;;;;;13.57;97.81;95643.31;5091603;28;20412;-63
2022/05/11 01:12:27;;;;;;;0.40;0.20;;;;;;;13.22;99.16;95660.38;5091258;28;20432;-63
2022/05/11 01:15:00;;;;;;;0.40;0.30;;;;;;;12.70;100.00;95659.03;5091162;28;20934;-63
2022/05/11 01:17:29;;;;;;;0.40;0.30;;;;;;;13.01;100.00;95648.22;5093072;28;20511;-63
2022/05/11 01:19:57;;;;;;;0.40;0.20;;;;;;;13.28;100.00;95644.06;5094854;28;20914;-62
2022/05/11 01:22:33;;;;;;;0.40;0.30;;;;;;;12.99;100.00;95648.53;5093449;28;20865;-62
2022/05/11 01:25:04;;;;;;;0.40;0.30;;;;;;;12.78;100.00;95644.38;5093897;28;20941;-63
2022/05/11 01:27:36;;;;;;;0.40;0.20;;;;;;;12.92;100.00;95649.91;5093974;28;20520;-63
2022/05/11 01:30:08;;;;;;;0.40;0.30;;;;;;;12.62;100.00;95651.63;5093745;28;20463;-64
2022/05/11 01:32:38;;;;;;;0.40;0.27;;;;;;;12.69;100.00;95654.81;5094181;28;20523;-63
2022/05/11 01:35:35;;;;;;;0.40;0.20;;;;;;;12.30;100.00;95659.22;5094583;28;20987;-63
2022/05/11 01:38:12;;;;;;;0.40;0.20;;;;;;;12.03;100.00;95648.16;5094454;28;20493;-63
2022/05/11 01:40:42;;;;;;;0.30;0.20;;;;;;;12.18;100.00;95628.69;5094434;28;20478;-63
2022/05/11 01:43:15;;;;;;;1.03;0.93;;;;;;;12.64;100.00;95656.69;5094489;28;20930;-63
2022/05/11 01:45:44;;;;;;;0.40;0.20;;;;;;;12.99;100.00;95658.38;5094071;28;20464;-63
2022/05/11 01:48:12;;;;;;;0.40;0.20;;;;;;;12.80;100.00;95657.41;5094391;28;20942;-64
2022/05/11 01:50:40;;;;;;;0.40;0.30;;;;;;;12.90;100.00;95649.38;5094489;28;20511;-63
2022/05/11 01:53:09;;;;;;;0.40;0.30;;;;;;;12.92;100.00;95639.25;5094255;28;21060;-63
2022/05/11 01:55:37;;;;;;;0.97;0.97;;;;;;;12.95;100.00;95655.47;5094455;28;20445;-63
2022/05/11 01:58:08;;;;;;;0.40;0.30;;;;;;;12.85;100.00;95650.19;5094304;28;20489;-63
2022/05/11 02:00:38;;;;;;;0.40;0.20;;;;;;;12.88;100.00;95654.16;5093921;28;20531;-63
2022/05/11 02:03:07;;;;;;;0.40;0.20;;;;;;;12.88;100.00;95664.81;5094043;28;20753;-63
2022/05/11 02:08:22;;;;;;;0.50;0.30;;;;;;;12.15;100.00;95661.94;5094176;28;20503;-62
2022/05/11 02:10:50;;;;;;;0.40;0.20;;;;;;;12.14;100.00;95647.06;5093696;28;20436;-62
2022/05/11 02:13:21;;;;;;;0.40;0.20;;;;;;;12.54;100.00;95662.88;5093838;28;20520;-62
2022/05/11 02:15:50;;;;;;;0.40;0.30;;;;;;;12.50;100.00;95653.03;5093948;28;20511;-62
2022/05/11 02:18:18;;;;;;;0.40;0.20;;;;;;;12.69;100.00;95668.13;5093037;28;20551;-63
2022/05/11 02:20:46;;;;;;;0.40;0.30;;;;;;;12.69;100.00;95646.84;5093137;28;20521;-63
2022/05/11 02:23:16;;;;;;;0.40;0.20;;;;;;;12.53;100.00;95668.44;5093861;28;20425;-63
2022/05/11 02:25:45;;;;;;;0.37;0.20;;;;;;;12.62;100.00;95662.28;5093371;28;20433;-63
2022/05/11 02:28:15;;;;;;;0.30;0.20;;;;;;;12.68;99.81;95666.50;5092734;28;20495;-63
2022/05/11 02:30:46;;;;;;;0.30;0.20;;;;;;;12.51;100.00;95660.75;5093627;28;20456;-63
2022/05/11 02:33:15;;;;;;;0.40;0.30;;;;;;;12.50;100.00;95661.81;5093527;28;20436;-63
2022/05/11 02:35:45;;;;;;;0.70;0.53;;;;;;;12.31;100.00;95642.22;5093395;28;20987;-63
2022/05/11 02:38:18;;;;;;;0.40;0.20;;;;;;;12.46;100.00;95659.97;5093361;28;20921;-63
2022/05/11 02:40:47;;;;;;;1.37;0.30;;;;;;;12.52;100.00;95662.31;5093515;28;20464;-63
2022/05/11 02:43:16;;;;;;;0.40;0.20;;;;;;;12.45;100.00;95656.50;5093808;28;20440;-64
2022/05/11 02:45:47;;;;;;;0.40;0.20;;;;;;;12.23;100.00;95648.09;5093117;28;20563;-63
2022/05/11 02:48:18;;;;;;;0.43;0.23;;;;;;;12.11;100.00;95652.91;5093283;28;20424;-64
2022/05/11 02:50:49;;;;;;;0.40;0.30;;;;;;;12.06;100.00;95690.13;5093141;28;20531;-64
2022/05/11 02:53:18;;;;;;;0.40;0.30;;;;;;;12.17;100.00;95664.31;5092188;28;20987;-64
2022/05/11 02:55:48;;;;;;;0.40;0.20;;;;;;;12.25;100.00;95655.78;5093059;28;20960;-64
2022/05/11 02:58:21;;;;;;;0.40;0.20;;;;;;;12.27;100.00;95656.31;5093046;28;20551;-64
2022/05/11 03:00:52;;;;;;;0.57;0.30;;;;;;;11.88;100.00;95661.47;5092963;28;20992;-64
2022/05/11 03:03:21;;;;;;;0.40;0.20;;;;;;;11.54;100.00;95617.91;5092590;28;20490;-63
2022/05/11 03:05:52;;;;;;;0.40;0.20;;;;;;;12.06;100.00;95674.19;5092952;28;20515;-64
2022/05/11 03:08:21;;;;;;;0.40;0.30;;;;;;;12.10;100.00;95677.88;5092629;28;20432;-63
2022/05/11 03:10:49;;;;;;;0.47;0.30;;;;;;;12.05;100.00;95683.22;5093187;28;20428;-63
2022/05/11 03:13:18;;;;;;;0.40;0.30;;;;;;;12.29;100.00;95668.28;5092871;28;20464;-64
2022/05/11 03:15:47;;;;;;;0.40;0.27;;;;;;;12.31;100.00;95676.78;5092692;28;20432;-63
2022/05/11 03:18:17;;;;;;;0.40;0.30;;;;;;;12.34;100.00;95686.06;5093019;28;20491;-63
2022/05/11 03:20:45;;;;;;;0.40;0.20;;;;;;;12.20;100.00;95683.16;5092968;28;20535;-63
2022/05/11 03:23:14;;;;;;;0.40;0.20;;;;;;;11.97;100.00;95678.44;5092721;28;20962;-64
2022/05/11 03:25:42;;;;;;;0.40;0.20;;;;;;;12.01;100.00;95684.81;5092371;28;20468;-63
2022/05/11 03:28:11;;;;;;;0.40;0.37;;;;;;;12.10;100.00;95681.34;5091935;28;20481;-63
2022/05/11 03:30:40;;;;;;;0.40;0.30;;;;;;;12.16;100.00;95686.63;5092405;28;20476;-63
2022/05/11 03:35:56;;;;;;;0.30;0.20;;;;;;;12.00;100.00;95672.59;5092162;28;20447;-63
2022/05/11 03:38:24;;;;;;;0.40;0.20;;;;;;;12.02;100.00;95687.19;5092519;28;20973;-63
2022/05/11 03:40:52;;;;;;;0.40;0.30;;;;;;;12.00;100.00;95686.69;5092402;28;20518;-62
2022/05/11 03:43:20;;;;;;;0.40;0.30;;;;;;;12.07;100.00;95687.19;5092145;28;20459;-64
2022/05/11 03:45:49;;;;;;;0.50;0.30;;;;;;;11.80;100.00;95694.66;5092270;28;20551;-62
2022/05/11 03:48:17;;;;;;;0.40;0.30;;;;;;;12.06;100.00;95698.09;5092201;28;20503;-63
2022/05/11 03:50:46;;;;;;;0.40;0.30;;;;;;;12.01;100.00;95696.25;5092096;28;20460;-63
2022/05/11 03:53:15;;;;;;;0.40;0.30;;;;;;;12.29;100.00;95702.81;5092236;28;20843;-63
2022/05/11 03:55:44;;;;;;;0.40;0.30;;;;;;;12.54;99.25;95708.06;5092065;28;20511;-63
2022/05/11 03:58:14;;;;;;;0.40;0.20;;;;;;;12.01;100.00;95720.16;5091513;28;20551;-63
2022/05/11 04:00:43;;;;;;;0.40;0.20;;;;;;;11.46;100.00;95720.13;5092014;28;20462;-62
2022/05/11 04:03:11;;;;;;;0.90;0.63;;;;;;;11.02;100.00;95719.81;5091504;28;20473;-62
2022/05/11 04:05:39;;;;;;;1.13;1.13;;;;;;;11.05;100.00;95719.28;5092271;28;20840;-60
2022/05/11 04:08:09;;;;;;;0.40;0.30;;;;;;;11.65;100.00;95720.41;5092127;28;20425;-62
2022/05/11 04:10:39;;;;;;;1.40;1.00;;;;;;;11.07;100.00;95719.81;5091832;28;20467;-61
2022/05/11 04:13:08;;;;;;;0.40;0.30;;;;;;;11.37;100.00;95714.56;5091853;28;20467;-61
2022/05/11 04:15:36;;;;;;;1.03;1.03;;;;;;;11.33;100.00;95721.44;5092061;28;20870;-61
2022/05/11 04:18:06;;;;;;;1.03;0.53;;;;;;;11.38;100.00;95723.31;5091950;28;20831;-60
2022/05/11 04:20:34;;;;;;;0.40;0.20;;;;;;;11.33;100.00;95713.47;5092047;28;20520;-60
2022/05/11 04:23:20;;;;;;;0.40;0.20;;;;;;;11.58;100.00;95727.84;5091068;28;20439;-61
2022/05/11 04:25:49;;;;;;;0.30;0.20;;;;;;;11.86;100.00;95722.84;5091687;28;20515;-61
2022/05/11 04:28:18;;;;;;;0.40;0.30;;;;;;;11.96;100.00;95695.47;5091391;28;20520;-61
2022/05/11 04:30:46;;;;;;;0.30;0.30;;;;;;;11.99;100.00;95727.56;5091529;28;20460;-62
2022/05/11 04:33:14;;;;;;;0.40;0.30;;;;;;;12.37;100.00;95728.06;5091760;28;20486;-61
2022/05/11 04:35:43;;;;;;;0.40;0.30;;;;;;;12.74;100.00;95731.13;5091888;28;21050;-61
2022/05/11 04:38:11;;;;;;;0.40;0.30;;;;;;;13.04;100.00;95735.50;5091372;28;20455;-61
2022/05/11 04:40:40;;;;;;;0.30;0.30;;;;;;;12.90;100.00;95724.69;5091114;28;20519;-61
2022/05/11 04:43:11;;;;;;;0.77;0.77;;;;;;;12.65;100.00;95720.22;5091823;28;20508;-60
2022/05/11 04:45:40;;;;;;;0.50;0.37;;;;;;;12.06;100.00;95684.81;5091249;28;20472;-61
2022/05/11 04:48:09;;;;;;;0.40;0.30;;;;;;;12.66;100.00;95735.13;5091276;28;20485;-61
2022/05/11 04:50:39;;;;;;;0.30;0.20;;;;;;;13.20;100.00;95745.84;5091234;28;20972;-61
2022/05/11 04:53:08;;;;;;;1.17;1.17;;;;;;;12.82;100.00;95732.41;5094444;28;20417;-61
2022/05/11 04:55:37;;;;;;;0.73;0.73;;;;;;;12.77;100.00;95738.56;5095695;28;20428;-61
2022/05/11 04:58:06;;;;;;;0.40;0.30;;;;;;;13.08;100.00;95712.63;5094750;28;20456;-61
2022/05/11 05:00:36;;;;;;;0.37;0.20;;;;;;;13.23;100.00;95723.97;5095066;28;20503;-61
2022/05/11 05:03:09;;;;;;;0.40;0.30;;;;;;;12.83;100.00;95731.34;5095019;28;20471;-60
2022/05/11 05:05:38;;;;;;;0.43;0.40;;;;;;;13.53;100.00;95733.66;5095074;28;20423;-61
2022/05/11 05:08:07;;;;;;;0.40;0.30;;;;;;;13.99;100.00;95734.06;5095129;28;20522;-62
2022/05/11 05:10:37;;;;;;;0.37;0.27;;;;;;;14.11;100.00;95720.38;5095166;28;20462;-61
2022/05/11 05:13:08;;;;;;;0.40;0.33;;;;;;;14.05;100.00;95727.63;5094991;28;20934;-65
2022/05/11 05:15:40;;;;;;;0.33;0.20;;;;;;;14.04;99.90;95717.25;5094672;28;20435;-61
2022/05/11 05:18:08;;;;;;;1.10;0.53;;;;;;;13.90;100.00;95730.41;5095678;28;20456;-61
2022/05/11 05:20:38;;;;;;;0.40;0.30;;;;;;;14.07;100.00;95735.31;5095119;28;20463;-62
2022/05/11 05:23:08;;;;;;;0.40;0.30;;;;;;;14.36;100.00;95739.63;5094739;28;20435;-62
2022/05/11 05:25:39;;;;;;;0.50;0.50;;;;;;;14.37;100.00;95738.53;5094963;28;20535;-63
2022/05/11 05:33:42;;;;;;;13.87;0.40;;;;;;;14.51;84.05;95736.00;5094603;28;20965;-63
2022/05/11 05:36:12;;;;;;;0.30;0.20;;;;;;;14.77;82.66;95739.97;5094520;28;20938;-64
2022/05/11 05:38:42;;;;;;;0.80;0.80;;;;;;;14.38;85.65;95736.66;5094477;28;20526;-65
2022/05/11 05:41:12;;;;;;;0.40;0.30;;;;;;;14.49;88.27;95741.63;5094727;28;20821;-65
2022/05/11 05:43:42;;;;;;;0.40;0.30;;;;;;;15.12;85.07;95731.53;5094471;28;20425;-66
2022/05/11 05:46:28;;;;;;;0.40;0.30;;;;;;;15.30;87.73;95735.28;5054069;28;20458;-68
2022/05/11 05:48:57;;;;;;;0.83;0.83;;;;;;;15.64;80.20;95709.16;5054050;28;20438;-66
2022/05/11 05:51:27;;;;;;;0.40;0.20;;;;;;;15.93;79.41;95733.03;5054071;28;21014;-65
2022/05/11 05:53:57;;;;;;;0.60;0.43;;;;;;;15.97;71.64;95672.53;5053968;28;20450;-65
2022/05/11 05:56:26;;;;;;;0.40;0.33;;;;;;;16.69;66.77;95726.34;5054307;28;20509;-66
2022/05/11 05:58:58;;;;;;;0.40;0.30;;;;;;;16.79;68.05;95720.81;5053181;28;20510;-65
2022/05/11 06:01:29;;;;;;;1.53;0.70;;;;;;;16.91;71.05;95724.56;5053925;28;20434;-67
2022/05/11 06:03:57;;;;;;;0.87;0.37;;;;;;;16.03;73.38;95698.09;5052587;28;20434;-67
2022/05/11 06:06:26;;;;;;;0.50;0.30;;;;;;;15.77;75.39;95731.69;5054130;28;21009;-68
2022/05/11 06:08:54;;;;;;;2.30;0.50;;;;;;;15.77;79.37;95678.22;5054202;28;20885;-70
2022/05/11 06:11:22;;;;;;;0.50;0.30;;;;;;;16.24;79.14;95722.63;5053390;28;20468;-69
2022/05/11 06:13:51;;;;;;;0.80;0.80;;;;;;;16.30;78.25;95724.91;5053340;28;20509;-71
2022/05/11 06:16:19;;;;;;;0.60;0.60;;;;;;;16.47;79.72;95729.66;5053581;28;20473;-73
2022/05/11 06:18:49;;;;;;;0.40;0.40;;;;;;;16.72;76.21;95715.81;5053824;28;20437;-72
2022/05/11 06:21:18;;;;;;;0.60;0.40;;;;;;;16.64;77.25;95731.81;5053091;28;20469;-71
2022/05/11 06:23:47;;;;;;;4.10;0.80;;;;;;;16.90;75.84;95716.84;5053545;28;20882;-70
2022/05/11 06:26:16;;;;;;;0.40;0.30;;;;;;;17.30;72.23;95725.91;5053041;28;20445;-70
2022/05/11 06:28:46;;;;;;;0.50;0.40;;;;;;;17.70;67.28;95730.38;5053326;28;20430;-69
2022/05/11 06:31:19;;;;;;;0.40;0.30;;;;;;;17.51;66.77;95732.38;5053640;28;20418;-69
2022/05/11 06:33:50;;;;;;;0.43;0.40;;;;;;;17.86;65.41;95733.50;5053236;28;20495;-70
2022/05/11 06:36:18;;;;;;;0.70;0.57;;;;;;;18.21;67.41;95722.69;5053725;28;20438;-69
2022/05/11 06:38:47;;;;;;;0.50;0.30;;;;;;;17.38;66.31;95682.31;5053201;28;20428;-68
2022/05/11 06:41:17;;;;;;;0.60;0.53;;;;;;;17.33;70.56;95727.97;5053023;28;20506;-67
2022/05/11 06:43:46;;;;;;;1.50;1.10;;;;;;;17.68;67.64;95698.50;5053475;28;20458;-67
2022/05/11 06:46:14;;;;;;;0.47;0.40;;;;;;;18.30;66.44;95685.16;5092769;28;20962;-66
2022/05/11 06:48:45;;;;;;;0.40;0.30;;;;;;;19.21;67.58;95709.47;5093132;28;20850;-65
2022/05/11 06:51:15;;;;;;;1.10;0.97;;;;;;;19.38;59.73;95710.34;5093796;28;20432;-65
2022/05/11 06:59:22;;;;;;;0.40;0.30;;;;;;;20.92;48.52;95703.09;5092932;28;20436;-64
2022/05/11 07:01:52;;;;;;;0.73;0.73;;;;;;;20.90;48.44;95700.72;5093157;28;20447;-62
2022/05/11 07:04:22;;;;;;;0.40;0.30;;;;;;;21.66;46.29;95703.25;5093114;28;20432;-63
2022/05/11 07:06:53;;;;;;;0.40;0.40;;;;;;;22.27;44.21;95696.22;5092697;28;20510;-62
2022/05/11 07:09:22;;;;;;;0.50;0.40;;;;;;;21.71;44.96;95698.44;5092633;28;20486;-63
2022/05/11 07:14:36;;;;;;;0.50;0.30;;;;;;;22.54;41.53;95690.97;5091672;28;20448;-63
2022/05/11 07:17:05;;;;;;;0.50;0.43;;;;;;;21.41;43.97;95694.25;5092395;28;20516;-64
2022/05/11 07:19:34;;;;;;;0.60;0.30;;;;;;;20.74;44.27;95670.06;5092451;28;20424;-64
2022/05/11 07:22:04;;;;;;;0.50;0.40;;;;;;;21.62;42.09;95688.84;5092386;28;20942;-66
2022/05/11 07:24:33;;;;;;;0.40;0.30;;;;;;;22.37;41.22;95683.06;5093047;28;20516;-67
2022/05/11 07:27:02;;;;;;;0.60;0.40;;;;;;;22.21;42.48;95687.56;5092912;28;20973;-71
2022/05/11 07:29:30;;;;;;;1.00;0.50;;;;;;;22.56;40.00;95671.75;5092764;28;20520;-69
2022/05/11 07:31:59;;;;;;;0.93;0.33;;;;;;;22.60;41.06;95654.53;5092512;28;20464;-70
2022/05/11 07:34:28;;;;;;;0.40;0.30;;;;;;;22.87;40.40;95690.91;5092794;28;20500;-68
2022/05/11 07:36:56;;;;;;;0.70;0.70;;;;;;;22.21;43.65;95684.84;5092413;28;20545;-69
2022/05/11 07:39:26;;;;;;;0.60;0.50;;;;;;;22.41;42.63;95678.59;5092713;28;20474;-70
2022/05/11 07:41:56;;;;;;;0.40;0.20;;;;;;;23.36;40.69;95676.28;5091860;28;20472;-71
2022/05/11 07:44:24;;;;;;;0.50;0.40;;;;;;;22.78;40.22;95676.75;5092160;28;20475;-71
2022/05/11 07:46:52;;;;;;;0.50;0.40;;;;;;;23.53;37.91;95674.44;5091996;28;20882;-70
2022/05/11 07:49:21;;;;;;;0.67;0.67;;;;;;;23.19;37.25;95675.72;5092039;28;20826;-70
2022/05/11 07:51:52;;;;;;;0.40;0.30;;;;;;;23.53;37.56;95680.63;5091905;28;20433;-68
2022/05/11 07:54:21;;;;;;;0.40;0.30;;;;;;;22.68;37.48;95667.16;5092095;28;20444;-67
2022/05/11 07:59:56;;;;;;;0.40;0.30;;;;;;;23.53;38.64;95675.22;5091956;28;20431;-68
2022/05/11 08:02:27;;;;;;;0.53;0.53;;;;;;;24.26;36.68;95674.97;5091666;28;20950;-69
2022/05/11 08:04:58;;;;;;;0.40;0.30;;;;;;;24.34;36.98;95665.84;5091173;28;20436;-69
2022/05/11 08:07:28;;;;;;;2.47;1.33;;;;;;;24.53;38.15;95674.09;5091137;28;20961;-70
2022/05/11 08:10:01;;;;;;;0.40;0.27;;;;;;;25.10;37.13;95668.94;5091357;28;20457;-68
2022/05/11 08:12:31;;;;;;;0.40;0.30;;;;;;;25.35;35.10;95666.75;5091519;28;20447;-67
2022/05/11 08:14:59;;;;;;;0.40;0.40;;;;;;;25.20;34.79;95660.25;5091627;28;20475;-66
2022/05/11 08:17:29;;;;;;;0.50;0.40;;;;;;;24.82;34.90;95654.72;5091374;28;20436;-65
2022/05/11 08:19:59;;;;;;;0.40;0.30;;;;;;;26.85;32.00;95647.56;5091255;28;20437;-64
2022/05/11 08:22:28;;;;;;;0.40;0.30;;;;;;;25.15;33.58;95657.00;5091330;28;20477;-64
2022/05/11 08:24:57;;;;;;;0.63;0.50;;;;;;;25.00;34.13;95574.56;5091376;28;20511;-61
2022/05/11 08:27:28;;;;;;;0.50;0.40;;;;;;;25.02;34.75;95639.31;5094180;28;20495;-58
2022/05/11 08:35:58;;;;;;;3.90;0.30;;;;;;;27.30;30.59;95649.44;5095726;28;20957;-56
2022/05/11 08:38:28;;;;;;;0.40;0.30;;;;;;;28.57;28.63;95640.81;5095628;28;20946;-55
2022/05/11 08:41:03;;;;;;;0.30;0.20;;;;;;;26.86;28.27;95371.72;5095584;28;20515;-55
2022/05/11 08:43:33;;;;;;;0.37;0.30;;;;;;;28.77;29.27;95638.69;5095794;28;20431;-55
2022/05/11 08:46:13;;;;;;;0.40;0.30;;;;;;;28.96;28.44;95624.81;5095362;28;20559;-56
2022/05/11 08:48:52;;;;;;;0.40;0.30;;;;;;;27.85;28.85;95636.94;5095471;28;20424;-55
2022/05/11 08:51:25;;;;;;;0.40;0.30;;;;;;;26.24;30.75;95640.31;5095171;28;20825;-55
2022/05/11 08:54:08;;;;;;;0.37;0.30;;;;;;;25.59;31.65;95620.41;5095418;28;20436;-56
2022/05/11 08:56:37;;;;;;;0.40;0.30;;;;;;;25.67;32.58;95634.91;5095602;28;20505;-55
2022/05/11 08:59:19;;;;;;;3.17;0.90;;;;;;;25.78;32.50;95625.81;5095231;28;20428;-56
2022/05/11 09:01:52;;;;;;;0.50;0.37;;;;;;;24.98;31.62;95641.91;5095423;28;20463;-56
2022/05/11 09:04:26;;;;;;;0.30;0.30;;;;;;;25.42;31.76;95617.31;5095119;28;20450;-56
2022/05/11 09:06:55;;;;;;;0.50;0.50;;;;;;;25.12;32.18;95636.81;5095110;28;20523;-56
2022/05/11 09:09:24;;;;;;;0.40;0.30;;;;;;;24.58;32.91;95635.91;5095336;28;20589;-56
2022/05/11 09:11:55;;;;;;;0.40;0.30;;;;;;;24.68;32.74;95638.09;5095002;28;20507;-56
2022/05/11 09:14:30;;;;;;;0.40;0.33;;;;;;;25.43;33.03;95637.84;5094982;28;21315;-56
2022/05/11 09:17:00;;;;;;;0.40;0.30;;;;;;;26.53;30.21;95625.28;5094709;28;20534;-55
2022/05/11 09:19:31;;;;;;;0.50;0.37;;;;;;;26.77;28.97;95627.63;5095165;28;20425;-55
2022/05/11 09:22:09;;;;;;;0.70;0.70;;;;;;;26.06;29.03;95625.56;5094943;28;20480;-55
2022/05/11 09:24:45;;;;;;;0.40;0.33;;;;;;;26.38;28.44;95629.69;5094843;28;20937;-55
2022/05/11 09:27:24;;;;;;;0.43;0.37;;;;;;;26.24;29.62;95625.94;5094045;28;20518;-55
2022/05/11 09:30:01;;;;;;;0.30;0.20;;;;;;;26.47;30.82;95624.00;5094671;28;20427;-55
2022/05/11 09:32:37;;;;;;;0.60;0.60;;;;;;;25.32;30.04;95574.44;5095039;28;20440;-55
2022/05/11 09:35:21;;;;;;;0.40;0.33;;;;;;;25.32;30.26;95639.56;5094100;28;20443;-55
2022/05/11 09:37:58;;;;;;;0.40;0.30;;;;;;;26.08;29.25;95622.53;5094482;28;20914;-55
2022/05/11 09:40:27;;;;;;;0.50;0.40;;;;;;;27.19;27.90;95559.47;5093911;28;20471;-54
2022/05/11 09:46:36;;;;;;;0.40;0.30;;;;;;;28.82;26.21;95613.78;5092460;28;20525;-54
2022/05/11 10:09:12;;;;;;;0.40;0.37;;;;;;;31.00;25.17;95597.41;5130096;27;20540;-53
2022/05/11 10:11:46;;;;;;;0.40;0.30;;;;;;;30.97;25.54;95598.19;5129831;28;20441;-53
2022/05/11 10:22:53;;;;;;;0.30;0.30;;;;;;;30.52;24.13;95593.47;5128537;28;20947;-53
2022/05/11 10:25:26;;;;;;;0.30;0.20;;;;;;;30.98;23.87;95594.28;5129752;27;20453;-53
2022/05/11 10:28:02;;;;;;;3.90;0.50;;;;;;;29.76;23.24;95593.66;5129322;28;20484;-53
2022/05/11 10:30:36;;;;;;;0.50;0.30;;;;;;;30.58;24.22;95580.97;5129094;28;20461;-53
2022/05/11 10:33:59;;;;;;;0.30;0.30;;;;;;;29.41;23.10;95590.78;5129423;28;20469;-54
2022/05/11 10:36:38;;;;;;;0.50;0.30;;;;;;;28.16;25.50;95592.91;5046012;28;20465;-54
2022/05/11 10:39:31;;;;;;;0.40;0.30;;;;;;;27.98;26.43;95591.94;5129522;28;20406;-54
2022/05/11 10:42:10;;;;;;;0.30;0.30;;;;;;;27.75;25.75;95583.13;5129183;28;20947;-54
2022/05/11 10:44:51;;;;;;;0.53;0.53;;;;;;;26.54;25.98;95530.91;5129005;27;20425;-55
2022/05/11 10:47:35;;;;;;;0.90;0.53;;;;;;;26.28;26.56;95589.53;5129465;28;20521;-55
2022/05/11 10:50:17;;;;;;;1.27;0.77;;;;;;;26.10;28.04;95601.19;5129082;28;20919;-55
2022/05/11 10:53:16;;;;;;;0.40;0.30;;;;;;;25.67;27.69;95594.97;5129029;28;20942;-55
2022/05/11 10:55:58;;;;;;;0.40;0.40;;;;;;;26.75;27.74;95596.47;5129034;28;20435;-55
2022/05/11 10:58:46;;;;;;;0.40;0.30;;;;;;;26.46;28.02;95578.97;5128695;28;20541;-55
2022/05/11 11:01:16;;;;;;;0.40;0.37;;;;;;;26.02;28.51;95537.81;5128536;28;20529;-55
2022/05/11 11:04:20;;;;;;;0.40;0.30;;;;;;;26.33;28.31;95577.56;5128741;28;20422;-55
2022/05/11 11:07:14;;;;;;;0.60;0.60;;;;;;;26.21;29.26;95596.78;5128578;28;20466;-55
2022/05/11 11:10:03;;;;;;;0.40;0.30;;;;;;;27.10;29.40;95580.72;5117241;28;20441;-55
2022/05/11 11:12:49;;;;;;;0.70;0.30;;;;;;;26.41;28.00;95588.19;5115310;28;20515;-55
2022/05/11 11:15:23;;;;;;;0.30;0.30;;;;;;;27.00;27.65;95590.28;5114847;28;20439;-55
2022/05/11 11:17:52;;;;;;;0.40;0.30;;;;;;;26.02;27.76;95586.72;5115131;28;20499;-55
2022/05/11 11:20:22;;;;;;;0.30;0.20;;;;;;;26.48;28.40;95582.09;5114718;28;20941;-56
2022/05/11 11:23:06;;;;;;;0.40;0.40;;;;;;;26.59;27.66;95593.16;5114303;28;20515;-55
2022/05/11 11:25:48;;;;;;;0.90;0.73;;;;;;;26.10;27.79;95588.41;5115032;28;20496;-55
2022/05/11 11:28:17;;;;;;;1.00;0.67;;;;;;;25.88;27.52;95589.19;5114892;28;20420;-55
2022/05/11 11:31:19;;;;;;;0.50;0.30;;;;;;;26.07;28.13;95596.47;5114481;28;20473;-55
2022/05/11 11:34:12;;;;;;;0.40;0.30;;;;;;;25.71;28.83;95593.09;5114014;28;20443;-55
2022/05/11 11:36:41;;;;;;;0.77;0.30;;;;;;;26.35;28.83;95581.50;5114334;28;20466;-57
2022/05/11 11:39:14;;;;;;;1.70;0.73;;;;;;;26.23;27.65;95587.13;5114123;28;20475;-55
2022/05/11 11:42:04;;;;;;;5.70;0.60;;;;;;;25.21;27.87;95590.50;5114231;28;20484;-55
2022/05/11 11:44:39;;;;;;;0.40;0.30;;;;;;;25.96;28.47;95584.66;5103800;28;21007;-54
2022/05/11 11:47:37;;;;;;;0.40;0.40;;;;;;;26.83;26.82;95579.16;5114262;28;20772;-56
2022/05/11 11:50:12;;;;;;;0.50;0.50;;;;;;;26.19;27.90;95580.81;5114160;28;20943;-55
2022/05/11 11:52:46;;;;;;;0.80;0.60;;;;;;;26.96;26.60;95583.25;5114015;28;20462;-55
2022/05/11 11:55:32;;;;;;;0.50;0.30;;;;;;;27.17;27.68;95580.84;5114412;28;20482;-55
2022/05/11 11:58:14;;;;;;;8.63;0.50;;;;;;;26.65;26.76;95548.16;5113929;28;20496;-59
2022/05/11 12:01:01;;;;;;;0.50;0.40;;;;;;;27.49;27.36;95573.09;5113795;28;20855;-54
2022/05/11 12:03:34;;;;;;;0.40;0.30;;;;;;;27.19;26.75;95575.00;5114327;28;20428;-55
2022/05/11 12:17:27;;;;;;;0.40;0.37;;;;;;;26.82;27.46;95555.81;5113704;28;20494;-54
2022/05/11 12:20:06;;;;;;;2.33;0.70;;;;;;;26.98;27.08;95545.56;5113131;28;20955;-54
2022/05/11 12:22:41;;;;;;;2.20;0.63;;;;;;;27.59;26.09;95543.25;5113847;28;20511;-54
2022/05/11 12:25:20;;;;;;;0.40;0.37;;;;;;;28.26;26.43;95543.94;5114031;28;20450;-54
2022/05/11 12:27:49;;;;;;;7.27;0.43;;;;;;;28.62;24.65;95542.31;5113738;28;20857;-55
2022/05/11 12:30:21;;;;;;;0.40;0.33;;;;;;;27.99;26.96;95547.16;5113486;28;20510;-54
2022/05/11 12:32:52;;;;;;;0.60;0.50;;;;;;;26.70;27.20;95469.78;5113835;28;20424;-54
2022/05/11 12:35:26;;;;;;;0.50;0.50;;;;;;;26.28;27.41;95546.06;5113876;28;20502;-55
2022/05/11 12:37:58;;;;;;;0.50;0.40;;;;;;;26.61;27.72;95544.63;5113575;28;20530;-55
2022/05/11 12:40:28;;;;;;;0.70;0.70;;;;;;;26.49;28.17;95535.50;5113668;28;20456;-55
2022/05/11 12:43:00;;;;;;;0.60;0.50;;;;;;;26.76;27.79;95527.34;5113422;28;20447;-55
2022/05/11 12:45:36;;;;;;;0.87;0.40;;;;;;;28.35;26.57;95500.03;5113259;28;20493;-56
2022/05/11 12:48:05;;;;;;;0.50;0.50;;;;;;;29.49;26.13;95515.91;5113223;28;20844;-55
2022/05/11 12:50:38;;;;;;;0.80;0.77;;;;;;;28.34;27.10;95523.78;5113097;28;20894;-55
2022/05/11 12:53:23;;;;;;;0.40;0.30;;;;;;;26.64;28.01;95530.31;5113447;28;20851;-55
2022/05/11 12:55:55;;;;;;;0.70;0.50;;;;;;;26.43;28.13;95496.22;5113249;28;20593;-55
2022/05/11 12:58:28;;;;;;;0.40;0.40;;;;;;;26.38;28.67;95512.03;5113293;28;20474;-56
2022/05/11 13:00:58;;;;;;;0.40;0.40;;;;;;;26.58;28.45;95475.44;5112416;28;20510;-55
2022/05/11 13:03:29;;;;;;;0.40;0.30;;;;;;;26.87;29.11;95512.78;5113153;28;20423;-55
2022/05/11 13:06:03;;;;;;;0.90;0.80;;;;;;;26.35;29.68;95508.13;5112843;28;20484;-55
2022/05/11 13:08:36;;;;;;;0.57;0.50;;;;;;;26.07;29.21;95520.41;5112667;28;20914;-55